Time;durP1;ratioP1;P1;durP2;ratioP2;P2;SDS_P1;SDS_P2;PMS_P1;PMS_P2;Temp;Humidity;BMP_temperature;BMP_pressure;BME280_temperature;BME280_humidity;BME280_pressure;Samples;Min_cycle;Max_cycle;Signal;HPM_P1;HPM_P2
2022/04/27 00:00:16;;;;;;;10.77;5.35;;;5.10;99.90;;;;;;5024235;28;20501;-65
2022/04/27 00:02:42;;;;;;;12.48;5.65;;;5.10;99.90;;;;;;5024686;28;20048;-65
2022/04/27 00:05:09;;;;;;;7.65;5.18;;;5.10;99.90;;;;;;5023669;28;20069;-65
2022/04/27 00:07:34;;;;;;;8.82;4.93;;;5.10;99.90;;;;;;5022158;28;20041;-65
2022/04/27 00:10:12;;;;;;;7.22;3.90;;;5.10;99.90;;;;;;5022484;28;20172;-65
2022/04/27 00:12:38;;;;;;;8.07;5.05;;;5.00;99.90;;;;;;5022558;28;20056;-65
2022/04/27 00:15:05;;;;;;;10.23;5.47;;;5.10;99.90;;;;;;5021896;28;20041;-65
2022/04/27 00:17:31;;;;;;;8.98;5.72;;;5.00;99.90;;;;;;5020492;28;20041;-65
2022/04/27 00:19:57;;;;;;;12.63;5.38;;;5.00;99.90;;;;;;5020983;28;20555;-65
2022/04/27 00:22:23;;;;;;;9.82;6.85;;;5.00;99.90;;;;;;5021915;28;20070;-65
2022/04/27 00:24:49;;;;;;;11.88;6.28;;;4.90;99.90;;;;;;5022469;28;20128;-65
2022/04/27 00:27:15;;;;;;;12.13;6.03;;;4.90;99.90;;;;;;5016831;28;20137;-65
2022/04/27 00:29:41;;;;;;;15.10;5.90;;;4.90;99.90;;;;;;5025651;28;20124;-65
2022/04/27 00:32:07;;;;;;;8.70;5.97;;;4.80;99.90;;;;;;5020581;28;20034;-65
2022/04/27 00:34:33;;;;;;;9.25;5.35;;;4.80;99.90;;;;;;5022913;28;20033;-65
2022/04/27 00:36:58;;;;;;;7.93;5.47;;;4.80;99.90;;;;;;5020288;28;20042;-65
2022/04/27 00:39:24;;;;;;;9.30;5.75;;;4.80;99.90;;;;;;5023662;28;20042;-65
2022/04/27 00:42:02;;;;;;;7.43;5.72;;;4.70;99.90;;;;;;5022849;28;20096;-65
2022/04/27 00:44:32;;;;;;;10.15;5.25;;;4.60;99.90;;;;;;5008152;28;20056;-65
2022/04/27 00:46:59;;;;;;;9.65;5.70;;;4.60;99.90;;;;;;5019863;28;20045;-65
2022/04/27 00:49:26;;;;;;;12.70;6.28;;;4.60;99.90;;;;;;5053226;28;20665;-65
2022/04/27 00:51:53;;;;;;;6.00;5.43;;;4.60;99.90;;;;;;5020486;28;21091;-65
2022/04/27 00:54:22;;;;;;;8.90;6.28;;;4.70;99.90;;;;;;5017918;28;20034;-65
2022/04/27 00:56:49;;;;;;;6.72;5.47;;;4.70;99.90;;;;;;5020744;28;20045;-65
2022/04/27 00:59:15;;;;;;;8.20;4.80;;;4.60;99.90;;;;;;5025141;28;20033;-65
2022/04/27 01:01:40;;;;;;;7.90;5.53;;;4.70;99.90;;;;;;5019944;28;20150;-65
2022/04/27 01:04:07;;;;;;;8.52;5.60;;;4.70;99.90;;;;;;5023017;28;20025;-65
2022/04/27 01:06:37;;;;;;;7.75;5.18;;;4.70;99.90;;;;;;5023218;28;20106;-65
2022/04/27 01:09:02;;;;;;;6.65;5.10;;;4.70;99.90;;;;;;5022167;28;20037;-66
2022/04/27 01:11:28;;;;;;;11.90;6.72;;;4.70;99.90;;;;;;5023324;28;20077;-66
2022/04/27 01:13:54;;;;;;;8.30;5.65;;;4.70;99.90;;;;;;5017499;28;20135;-66
2022/04/27 01:16:20;;;;;;;8.05;5.53;;;4.80;99.90;;;;;;5022518;28;20068;-66
2022/04/27 01:18:45;;;;;;;9.73;5.72;;;4.80;99.90;;;;;;5020763;28;20046;-66
2022/04/27 01:21:12;;;;;;;8.07;5.30;;;4.90;99.90;;;;;;5017597;28;20095;-66
2022/04/27 01:23:39;;;;;;;9.27;6.03;;;4.90;99.90;;;;;;5019463;28;20473;-66
2022/04/27 01:26:08;;;;;;;7.07;6.20;;;4.90;99.90;;;;;;5019185;28;20045;-66
2022/04/27 01:28:35;;;;;;;10.13;6.80;;;5.00;99.90;;;;;;5018375;28;20044;-66
2022/04/27 01:31:09;;;;;;;7.00;4.93;;;5.00;99.90;;;;;;5022564;28;20582;-66
2022/04/27 01:33:35;;;;;;;9.27;6.32;;;5.00;99.90;;;;;;5022636;28;20053;-66
2022/04/27 01:36:02;;;;;;;7.43;5.55;;;5.10;99.90;;;;;;5021368;28;20060;-66
2022/04/27 01:38:39;;;;;;;11.80;6.90;;;5.10;99.90;;;;;;5021400;28;20075;-66
2022/04/27 01:41:06;;;;;;;10.70;6.20;;;5.20;99.90;;;;;;5020133;28;20075;-66
2022/04/27 01:43:33;;;;;;;8.70;6.70;;;5.20;99.90;;;;;;5018699;28;20042;-66
2022/04/27 01:45:59;;;;;;;12.30;6.32;;;5.30;99.90;;;;;;5017891;28;20065;-66
2022/04/27 01:48:26;;;;;;;7.97;5.15;;;5.30;99.90;;;;;;5050072;28;20052;-66
2022/04/27 01:50:51;;;;;;;8.82;5.63;;;5.30;99.90;;;;;;5018498;28;20095;-66
2022/04/27 01:56:03;;;;;;;10.07;6.07;;;5.30;99.90;;;;;;5019491;28;20132;-66
2022/04/27 01:58:28;;;;;;;8.90;6.15;;;5.30;99.90;;;;;;5021111;28;20045;-66
2022/04/27 02:00:54;;;;;;;8.50;5.97;;;5.30;99.90;;;;;;5022437;28;20127;-66
2022/04/27 02:03:21;;;;;;;8.13;6.25;;;5.30;99.90;;;;;;5018138;28;20042;-66
2022/04/27 02:05:48;;;;;;;8.77;6.60;;;5.30;99.90;;;;;;5017831;28;20037;-66
2022/04/27 02:08:14;;;;;;;8.43;5.97;;;5.40;99.90;;;;;;5021236;28;20107;-66
2022/04/27 02:10:40;;;;;;;7.80;5.82;;;5.40;99.90;;;;;;5019957;28;20044;-66
2022/04/27 02:13:08;;;;;;;12.30;6.60;;;5.40;99.90;;;;;;5019251;28;20415;-66
2022/04/27 02:15:34;;;;;;;8.75;5.68;;;5.40;99.90;;;;;;5019371;28;20034;-66
2022/04/27 02:18:01;;;;;;;7.40;5.25;;;5.40;99.90;;;;;;5020683;28;20127;-66
2022/04/27 02:20:27;;;;;;;10.93;6.80;;;5.50;99.90;;;;;;5022852;28;20037;-66
2022/04/27 02:22:53;;;;;;;11.70;6.20;;;5.50;99.90;;;;;;5007492;28;20054;-66
2022/04/27 02:25:20;;;;;;;6.65;5.82;;;5.50;99.90;;;;;;5020627;28;20044;-66
2022/04/27 02:27:46;;;;;;;6.88;5.47;;;5.60;99.90;;;;;;5024773;28;20143;-66
2022/04/27 02:30:12;;;;;;;9.10;5.93;;;5.60;99.90;;;;;;5024716;28;20052;-66
2022/04/27 02:32:39;;;;;;;10.73;5.60;;;5.60;99.90;;;;;;5026747;28;20660;-66
2022/04/27 02:35:06;;;;;;;8.52;5.93;;;5.70;99.90;;;;;;5025337;28;20041;-66
2022/04/27 02:37:32;;;;;;;10.60;6.00;;;5.70;99.90;;;;;;5021418;28;20052;-66
2022/04/27 02:40:00;;;;;;;8.48;5.88;;;5.70;99.90;;;;;;5023629;28;20035;-66
2022/04/27 02:42:26;;;;;;;10.63;6.05;;;5.80;99.90;;;;;;5026209;28;20049;-66
2022/04/27 02:44:52;;;;;;;9.23;6.47;;;5.80;99.90;;;;;;5021924;28;20045;-66
2022/04/27 02:47:19;;;;;;;7.40;5.55;;;5.80;99.90;;;;;;5024174;28;20069;-66
2022/04/27 02:52:29;;;;;;;10.02;5.55;;;5.80;99.90;;;;;;5020410;28;20049;-66
2022/04/27 02:54:55;;;;;;;10.45;5.95;;;5.90;99.90;;;;;;5023881;28;20041;-66
2022/04/27 02:57:21;;;;;;;7.68;5.80;;;5.90;99.90;;;;;;5021747;28;20542;-66
2022/04/27 02:59:47;;;;;;;10.75;5.50;;;5.90;99.90;;;;;;5024781;28;20045;-66
2022/04/27 03:02:13;;;;;;;10.48;6.07;;;5.90;99.90;;;;;;5019608;28;20036;-66
2022/04/27 03:04:38;;;;;;;7.93;5.60;;;5.90;99.90;;;;;;5025044;28;20045;-66
2022/04/27 03:07:05;;;;;;;10.85;5.75;;;5.90;99.90;;;;;;5025196;28;20049;-66
2022/04/27 03:09:30;;;;;;;10.13;6.10;;;5.80;99.90;;;;;;5022641;28;20091;-66
2022/04/27 03:11:56;;;;;;;11.25;6.90;;;5.90;99.90;;;;;;5019897;28;20046;-66
2022/04/27 03:14:22;;;;;;;7.93;6.28;;;5.90;99.90;;;;;;5023155;28;20080;-66
2022/04/27 03:16:49;;;;;;;9.40;5.43;;;5.90;99.90;;;;;;5023004;28;20115;-66
2022/04/27 03:19:15;;;;;;;6.53;5.85;;;5.90;99.90;;;;;;5019686;28;20033;-66
2022/04/27 03:21:41;;;;;;;6.07;5.45;;;5.90;99.90;;;;;;5022843;28;20053;-66
2022/04/27 03:24:06;;;;;;;7.70;5.38;;;5.90;99.90;;;;;;5023490;28;20052;-66
2022/04/27 03:26:32;;;;;;;7.60;5.88;;;5.90;99.90;;;;;;5024015;28;20048;-66
2022/04/27 03:28:59;;;;;;;13.18;7.05;;;6.00;99.90;;;;;;5021847;28;20117;-66
2022/04/27 03:31:33;;;;;;;8.77;6.53;;;6.00;99.90;;;;;;5020326;28;20045;-65
2022/04/27 03:33:59;;;;;;;12.30;6.60;;;6.00;99.90;;;;;;5027533;28;20085;-66
2022/04/27 03:36:25;;;;;;;9.55;6.22;;;6.00;99.90;;;;;;5024253;28;20438;-66
2022/04/27 03:38:51;;;;;;;8.70;6.38;;;6.00;99.90;;;;;;5023237;28;20049;-66
2022/04/27 03:41:20;;;;;;;10.23;6.03;;;6.00;99.90;;;;;;5019647;28;20040;-66
2022/04/27 03:43:46;;;;;;;8.75;5.75;;;6.00;99.90;;;;;;5022040;28;20111;-66
2022/04/27 03:46:13;;;;;;;8.23;6.50;;;6.00;99.90;;;;;;5021484;28;20040;-66
2022/04/27 03:48:38;;;;;;;9.45;6.00;;;6.00;99.90;;;;;;5020214;28;20041;-66
2022/04/27 03:51:04;;;;;;;12.57;6.57;;;6.00;99.90;;;;;;5020353;28;20080;-66
2022/04/27 03:53:30;;;;;;;7.47;6.18;;;6.00;99.90;;;;;;5021081;28;20077;-66
2022/04/27 03:55:56;;;;;;;11.18;5.75;;;6.10;99.90;;;;;;5020660;28;20045;-66
2022/04/27 03:58:21;;;;;;;10.55;5.82;;;6.10;99.90;;;;;;5019659;28;20524;-66
2022/04/27 04:00:47;;;;;;;9.43;5.53;;;6.10;99.90;;;;;;5052207;28;20055;-66
2022/04/27 04:03:12;;;;;;;11.48;5.53;;;6.10;99.90;;;;;;5022125;28;20044;-66
2022/04/27 04:05:39;;;;;;;7.22;5.65;;;6.10;99.90;;;;;;5020161;28;20049;-66
2022/04/27 04:08:05;;;;;;;7.68;6.18;;;6.20;99.90;;;;;;5021371;28;20248;-66
2022/04/27 04:10:31;;;;;;;9.43;5.93;;;6.20;99.90;;;;;;5028586;28;20095;-67
2022/04/27 04:12:57;;;;;;;12.55;6.55;;;6.20;99.90;;;;;;5018756;28;21959;-66
2022/04/27 04:15:23;;;;;;;11.73;6.05;;;6.30;99.90;;;;;;5022859;28;20033;-66
2022/04/27 04:17:49;;;;;;;11.45;5.45;;;6.30;99.90;;;;;;5021066;28;20092;-65
2022/04/27 04:20:19;;;;;;;18.00;6.00;;;6.30;99.90;;;;;;5016808;28;20482;-65
2022/04/27 04:22:48;;;;;;;23.00;6.65;;;6.30;99.90;;;;;;5005331;28;20045;-66
2022/04/27 04:30:44;;;;;;;8.95;5.80;;;6.40;99.90;;;;;;5017957;28;20056;-66
2022/04/27 04:33:10;;;;;;;9.77;6.53;;;6.50;99.90;;;;;;5034192;28;20037;-66
2022/04/27 04:35:36;;;;;;;11.50;6.43;;;6.50;99.90;;;;;;5020595;28;20065;-66
2022/04/27 04:38:04;;;;;;;12.52;6.82;;;6.40;99.90;;;;;;5017843;28;20492;-66
2022/04/27 04:40:30;;;;;;;8.68;6.00;;;6.50;99.90;;;;;;5018362;28;20075;-66
2022/04/27 04:42:56;;;;;;;11.00;6.05;;;6.60;99.90;;;;;;5019370;28;20053;-66
2022/04/27 04:45:23;;;;;;;26.73;6.93;;;6.50;99.90;;;;;;5023041;28;20064;-66
2022/04/27 04:47:49;;;;;;;27.88;7.22;;;6.60;99.90;;;;;;5019836;28;20045;-66
2022/04/27 04:50:15;;;;;;;19.52;6.38;;;6.60;99.90;;;;;;5022060;28;20056;-66
2022/04/27 04:52:40;;;;;;;17.00;6.43;;;6.60;99.90;;;;;;5020033;28;20048;-66
2022/04/27 04:55:07;;;;;;;15.90;5.65;;;6.70;99.90;;;;;;5019100;28;20476;-66
2022/04/27 04:57:32;;;;;;;6.95;5.53;;;6.70;99.90;;;;;;5020625;28;20102;-66
2022/04/27 04:59:58;;;;;;;7.88;5.35;;;6.70;99.90;;;;;;5018343;28;20458;-66
2022/04/27 05:02:24;;;;;;;7.28;5.53;;;6.70;99.90;;;;;;5014089;28;20049;-66
2022/04/27 05:04:53;;;;;;;7.43;5.35;;;6.70;99.90;;;;;;5017496;28;20051;-66
2022/04/27 05:07:19;;;;;;;7.22;5.00;;;6.70;99.90;;;;;;5011877;28;20488;-66
2022/04/27 05:09:45;;;;;;;9.68;6.03;;;6.80;99.90;;;;;;5019788;28;20510;-66
2022/04/27 05:12:11;;;;;;;11.23;5.82;;;6.90;99.90;;;;;;5019126;28;20038;-66
2022/04/27 05:14:40;;;;;;;7.57;5.72;;;7.00;99.90;;;;;;5016719;28;20041;-66
2022/04/27 05:17:06;;;;;;;7.57;5.10;;;7.00;99.90;;;;;;5014779;28;20073;-66
2022/04/27 05:19:31;;;;;;;10.82;5.95;;;7.10;99.90;;;;;;5017974;28;20061;-66
2022/04/27 05:21:57;;;;;;;11.98;6.32;;;7.10;99.90;;;;;;5018141;28;20150;-66
2022/04/27 05:24:23;;;;;;;10.40;6.50;;;7.20;99.90;;;;;;5045276;28;20123;-66
2022/04/27 05:26:49;;;;;;;9.93;5.57;;;7.20;99.90;;;;;;5014291;28;20084;-66
2022/04/27 05:31:59;;;;;;;7.93;5.63;;;7.30;99.90;;;;;;5015687;28;20144;-66
2022/04/27 05:34:26;;;;;;;11.93;5.07;;;7.40;99.90;;;;;;5015925;28;20040;-66
2022/04/27 05:36:52;;;;;;;6.18;4.60;;;7.40;99.90;;;;;;5020725;28;20061;-66
2022/04/27 05:39:20;;;;;;;7.40;5.05;;;7.50;99.90;;;;;;5019877;28;20514;-66
2022/04/27 05:41:52;;;;;;;7.15;5.28;;;7.50;99.90;;;;;;5020221;28;20049;-66
2022/04/27 05:44:19;;;;;;;8.60;5.22;;;7.60;99.90;;;;;;5018323;28;20037;-66
2022/04/27 05:46:45;;;;;;;7.90;4.95;;;7.60;99.90;;;;;;5024206;28;20041;-66
2022/04/27 05:49:12;;;;;;;6.43;4.55;;;7.60;99.90;;;;;;5049409;28;20108;-66
2022/04/27 05:51:37;;;;;;;8.68;4.97;;;7.70;99.90;;;;;;5022141;28;20125;-66
2022/04/27 05:54:03;;;;;;;7.75;4.75;;;7.70;99.90;;;;;;5020040;28;20041;-66
2022/04/27 05:56:28;;;;;;;8.27;4.45;;;7.80;99.90;;;;;;5024960;28;20046;-66
2022/04/27 05:58:54;;;;;;;10.13;4.85;;;7.80;99.90;;;;;;5027196;28;20128;-66
2022/04/27 06:01:20;;;;;;;7.30;4.65;;;7.80;99.90;;;;;;5019210;28;20071;-66
2022/04/27 06:03:45;;;;;;;7.00;4.60;;;7.90;99.90;;;;;;5026358;28;20037;-66
2022/04/27 06:06:11;;;;;;;5.68;4.57;;;8.00;99.90;;;;;;5028755;28;20037;-66
2022/04/27 06:08:37;;;;;;;4.38;3.97;;;8.10;99.90;;;;;;5024309;28;20921;-66
2022/04/27 06:11:03;;;;;;;8.85;4.78;;;8.10;99.90;;;;;;5025230;28;20042;-66
2022/04/27 06:13:29;;;;;;;6.30;4.07;;;8.20;99.90;;;;;;5027239;28;20122;-68
2022/04/27 06:15:54;;;;;;;8.90;4.43;;;8.20;99.90;;;;;;5022137;28;20037;-67
2022/04/27 06:18:20;;;;;;;7.00;3.83;;;8.30;99.90;;;;;;5004670;28;20042;-68
2022/04/27 06:20:46;;;;;;;8.15;3.85;;;8.40;99.90;;;;;;5024425;28;20180;-69
2022/04/27 06:23:13;;;;;;;5.90;3.58;;;8.40;99.90;;;;;;5019558;28;20094;-68
2022/04/27 06:25:40;;;;;;;9.82;4.28;;;8.50;99.90;;;;;;5022065;28;20164;-69
2022/04/27 06:28:09;;;;;;;7.65;3.70;;;8.50;99.90;;;;;;5023919;28;20053;-69
2022/04/27 06:30:35;;;;;;;6.57;4.10;;;8.50;99.90;;;;;;5022890;28;20048;-69
2022/04/27 06:33:01;;;;;;;6.45;3.72;;;8.60;99.90;;;;;;5020408;28;20037;-68
2022/04/27 06:35:27;;;;;;;11.80;4.35;;;8.60;99.90;;;;;;5028481;28;20041;-68
2022/04/27 06:37:53;;;;;;;6.53;3.65;;;8.70;99.90;;;;;;5029010;28;20499;-69
2022/04/27 06:40:18;;;;;;;7.90;3.28;;;8.80;99.90;;;;;;5026397;28;20042;-69
2022/04/27 06:42:44;;;;;;;5.82;3.35;;;8.80;99.90;;;;;;5029581;28;20038;-68
2022/04/27 06:45:11;;;;;;;8.02;3.42;;;8.90;99.90;;;;;;5027430;28;20049;-68
2022/04/27 06:47:36;;;;;;;7.75;4.15;;;9.00;99.90;;;;;;5027189;28;20435;-69
2022/04/27 06:50:03;;;;;;;7.68;4.10;;;9.10;99.90;;;;;;5028035;28;20045;-69
2022/04/27 06:52:28;;;;;;;6.90;3.13;;;9.10;99.90;;;;;;5027338;28;20042;-69
2022/04/27 06:54:54;;;;;;;6.28;3.42;;;9.10;99.90;;;;;;5027562;28;20034;-68
2022/04/27 06:57:19;;;;;;;6.93;3.08;;;9.20;99.90;;;;;;5028585;28;20096;-69
2022/04/27 06:59:45;;;;;;;5.93;2.55;;;9.20;99.90;;;;;;5025490;28;20038;-69
2022/04/27 07:02:14;;;;;;;5.28;3.08;;;9.30;99.90;;;;;;5025298;28;20046;-69
2022/04/27 07:04:48;;;;;;;4.95;2.28;;;9.40;99.90;;;;;;5028422;28;20088;-69
2022/04/27 07:07:14;;;;;;;3.53;1.33;;;9.50;99.90;;;;;;5045007;28;20126;-69
2022/04/27 07:09:40;;;;;;;3.10;1.17;;;9.50;99.90;;;;;;5027682;28;20095;-69
2022/04/27 07:12:06;;;;;;;2.10;0.50;;;9.60;99.90;;;;;;5027569;28;20100;-69
2022/04/27 07:14:32;;;;;;;4.20;0.60;;;9.70;99.90;;;;;;5027354;28;20041;-69
2022/04/27 07:16:57;;;;;;;2.30;0.60;;;9.70;99.90;;;;;;5025636;28;20037;-69
2022/04/27 07:19:23;;;;;;;5.65;0.50;;;9.80;99.90;;;;;;5028782;28;20037;-69
2022/04/27 07:21:49;;;;;;;3.80;0.65;;;9.80;99.90;;;;;;5026399;28;20056;-69
2022/04/27 07:24:14;;;;;;;5.65;0.90;;;9.90;99.90;;;;;;5026721;28;20042;-69
2022/04/27 07:26:40;;;;;;;3.08;0.77;;;10.00;99.90;;;;;;5009278;28;20041;-69
2022/04/27 07:29:08;;;;;;;2.42;0.77;;;10.00;99.90;;;;;;5025795;28;20480;-69
2022/04/27 07:31:33;;;;;;;6.60;1.10;;;10.20;99.90;;;;;;5024633;28;20136;-69
2022/04/27 07:33:59;;;;;;;5.07;0.50;;;10.20;99.90;;;;;;5028773;28;20116;-69
2022/04/27 07:36:24;;;;;;;2.85;0.43;;;10.30;99.90;;;;;;5027914;28;20033;-69
2022/04/27 07:38:50;;;;;;;2.95;0.60;;;10.30;99.90;;;;;;5025180;28;20045;-69
2022/04/27 07:41:15;;;;;;;2.63;0.47;;;10.30;99.90;;;;;;5024775;28;20041;-69
2022/04/27 07:43:42;;;;;;;3.55;0.60;;;10.50;99.90;;;;;;5025155;28;20046;-69
2022/04/27 07:46:09;;;;;;;4.30;0.73;;;10.50;99.90;;;;;;5054854;28;20087;-69
2022/04/27 07:48:35;;;;;;;2.50;0.50;;;10.50;99.90;;;;;;5025056;28;20049;-69
2022/04/27 07:51:02;;;;;;;2.33;0.60;;;10.70;99.90;;;;;;5023073;28;20045;-69
2022/04/27 07:53:29;;;;;;;2.50;0.63;;;10.80;99.90;;;;;;5024717;28;20052;-69
2022/04/27 07:55:55;;;;;;;3.97;0.80;;;10.80;99.90;;;;;;5029992;28;20167;-69
2022/04/27 07:58:21;;;;;;;5.72;0.55;;;10.80;99.90;;;;;;5026403;28;20048;-69
2022/04/27 08:00:47;;;;;;;3.15;0.55;;;10.90;99.90;;;;;;5028228;28;20034;-69
2022/04/27 08:03:12;;;;;;;2.92;0.80;;;10.90;99.90;;;;;;5025784;28;20043;-69
2022/04/27 08:05:38;;;;;;;4.45;0.68;;;11.00;99.90;;;;;;5025444;28;20048;-69
2022/04/27 08:08:05;;;;;;;2.40;0.55;;;11.00;99.90;;;;;;5026019;28;20052;-69
2022/04/27 08:10:31;;;;;;;4.85;0.50;;;11.10;99.90;;;;;;5024200;28;20119;-69
2022/04/27 08:12:57;;;;;;;4.05;0.70;;;11.00;99.90;;;;;;5024552;28;20124;-69
2022/04/27 08:15:26;;;;;;;4.32;0.70;;;11.10;99.90;;;;;;5025228;28;20634;-68
2022/04/27 08:17:54;;;;;;;4.70;0.80;;;11.10;99.90;;;;;;5022798;28;20033;-69
2022/04/27 08:23:08;;;;;;;4.03;1.48;;;11.20;99.00;;;;;;5024508;28;20646;-69
2022/04/27 08:25:35;;;;;;;3.30;0.45;;;11.30;99.90;;;;;;5028189;28;20041;-69
2022/04/27 08:28:05;;;;;;;4.13;0.80;;;11.30;99.90;;;;;;5025012;28;20115;-69
2022/04/27 08:30:30;;;;;;;4.10;0.80;;;11.50;99.90;;;;;;5023151;28;20041;-69
2022/04/27 08:32:59;;;;;;;3.90;0.73;;;11.50;99.90;;;;;;5023813;28;20072;-69
2022/04/27 08:35:25;;;;;;;5.32;0.88;;;11.70;98.70;;;;;;5024831;28;20081;-69
2022/04/27 08:37:51;;;;;;;3.60;0.60;;;11.80;98.50;;;;;;5024769;28;20064;-69
2022/04/27 08:40:17;;;;;;;2.63;0.80;;;11.90;97.70;;;;;;5024623;28;20037;-69
2022/04/27 08:42:42;;;;;;;4.47;0.68;;;12.00;96.90;;;;;;5025753;28;20111;-69
2022/04/27 08:45:08;;;;;;;4.20;1.00;;;12.20;97.40;;;;;;5027377;28;20048;-69
2022/04/27 08:47:34;;;;;;;5.43;1.23;;;12.30;96.40;;;;;;5023806;28;20069;-69
2022/04/27 08:50:10;;;;;;;4.65;0.68;;;12.40;95.60;;;;;;5026613;28;20033;-69
2022/04/27 08:52:37;;;;;;;3.20;0.73;;;12.40;96.00;;;;;;5025142;28;20045;-69
2022/04/27 08:55:03;;;;;;;5.28;0.75;;;12.50;95.50;;;;;;5027799;28;20443;-69
2022/04/27 08:57:29;;;;;;;3.60;0.82;;;12.60;95.70;;;;;;5023459;28;20065;-69
2022/04/27 08:59:56;;;;;;;3.83;0.80;;;12.60;96.60;;;;;;5027552;28;20072;-69
2022/04/27 09:02:25;;;;;;;3.40;0.80;;;12.60;96.30;;;;;;5024865;28;20029;-69
2022/04/27 09:05:11;;;;;;;3.88;0.77;;;12.60;95.60;;;;;;5023927;28;20060;-69
2022/04/27 09:07:42;;;;;;;7.43;0.98;;;12.60;95.60;;;;;;5026047;28;20033;-69
2022/04/27 09:10:10;;;;;;;10.85;2.03;;;12.60;96.30;;;;;;5024058;28;20053;-69
2022/04/27 09:12:42;;;;;;;6.30;1.13;;;12.60;96.40;;;;;;5023629;28;20034;-69
2022/04/27 09:15:08;;;;;;;4.85;0.88;;;12.60;95.50;;;;;;5029989;28;20121;-69
2022/04/27 09:23:06;;;;;;;2.83;0.80;;;12.40;94.70;;;;;;5026170;28;20054;-69
2022/04/27 09:25:36;;;;;;;4.20;0.70;;;12.50;95.30;;;;;;5022726;28;20037;-69
2022/04/27 09:28:05;;;;;;;7.53;1.63;;;12.50;93.30;;;;;;5026045;28;20049;-69
2022/04/27 09:30:32;;;;;;;4.80;1.10;;;12.50;93.50;;;;;;5028265;28;20404;-69
2022/04/27 09:32:58;;;;;;;2.30;0.63;;;12.60;94.40;;;;;;5029388;28;20042;-69
2022/04/27 09:35:37;;;;;;;5.32;0.77;;;12.60;94.90;;;;;;5029143;28;20132;-69
2022/04/27 09:38:17;;;;;;;3.05;0.60;;;12.70;94.50;;;;;;5025054;28;20124;-69
2022/04/27 09:40:45;;;;;;;3.40;0.90;;;12.70;93.30;;;;;;5029918;28;20518;-69
2022/04/27 09:43:13;;;;;;;6.00;1.02;;;12.70;93.70;;;;;;5028902;28;20054;-69
2022/04/27 09:45:39;;;;;;;6.35;1.00;;;12.60;93.50;;;;;;5026807;28;20480;-69
2022/04/27 09:48:05;;;;;;;3.85;0.88;;;12.70;93.90;;;;;;5036297;28;20041;-69
2022/04/27 09:50:48;;;;;;;3.92;0.80;;;12.70;94.20;;;;;;5030354;28;20404;-69
2022/04/27 09:53:18;;;;;;;4.88;0.80;;;12.70;93.00;;;;;;5027160;28;20466;-69
2022/04/27 09:55:49;;;;;;;5.38;0.95;;;12.80;92.80;;;;;;5029222;28;20129;-69
2022/04/27 09:58:16;;;;;;;6.63;2.10;;;12.80;92.00;;;;;;5030932;28;20111;-69
2022/04/27 10:00:43;;;;;;;6.18;0.90;;;12.80;92.30;;;;;;5028796;28;20613;-69
2022/04/27 10:03:18;;;;;;;5.43;1.23;;;12.90;92.70;;;;;;5027037;28;20096;-69
2022/04/27 10:05:45;;;;;;;3.83;0.80;;;13.00;92.30;;;;;;5057171;28;20034;-69
2022/04/27 10:08:11;;;;;;;3.42;0.93;;;13.00;91.20;;;;;;5027104;28;20044;-69
2022/04/27 10:10:38;;;;;;;3.15;0.63;;;13.00;92.00;;;;;;5026567;28;20504;-69
2022/04/27 10:13:08;;;;;;;4.80;1.48;;;13.00;91.60;;;;;;5027837;28;20155;-69
2022/04/27 10:15:34;;;;;;;3.97;0.75;;;13.10;92.30;;;;;;5029809;28;20041;-69
2022/04/27 10:18:00;;;;;;;3.63;1.48;;;13.10;92.90;;;;;;5027629;28;20666;-69
2022/04/27 10:20:31;;;;;;;8.98;1.55;;;13.10;92.00;;;;;;5028203;28;20666;-69
2022/04/27 10:23:31;;;;;;;6.35;1.10;;;13.00;91.70;;;;;;5027519;28;20447;-69
2022/04/27 10:26:17;;;;;;;3.92;1.23;;;12.90;91.30;;;;;;5019683;28;20065;-69
2022/04/27 10:28:51;;;;;;;4.47;0.98;;;13.00;91.80;;;;;;5025783;28;20918;-69
2022/04/27 10:31:51;;;;;;;5.32;1.67;;;13.00;91.10;;;;;;5025654;28;20135;-69
2022/04/27 10:34:21;;;;;;;6.72;1.08;;;13.00;90.80;;;;;;5022420;28;20057;-69
2022/04/27 10:36:51;;;;;;;6.43;1.20;;;13.10;91.40;;;;;;5028445;28;20116;-69
2022/04/27 10:39:19;;;;;;;4.35;1.15;;;13.10;92.40;;;;;;5025111;28;20081;-69
2022/04/27 10:42:03;;;;;;;4.63;1.10;;;13.00;92.30;;;;;;5027181;28;20073;-69
2022/04/27 10:44:47;;;;;;;9.88;1.20;;;13.10;92.30;;;;;;5028639;28;20037;-69
2022/04/27 10:47:14;;;;;;;4.75;1.17;;;13.20;92.20;;;;;;5024149;28;20037;-69
2022/04/27 10:49:40;;;;;;;4.72;1.20;;;13.20;91.80;;;;;;5026633;28;20052;-69
2022/04/27 10:52:07;;;;;;;8.88;1.67;;;13.30;92.30;;;;;;5029079;28;20053;-69
2022/04/27 10:54:37;;;;;;;6.70;1.55;;;13.40;91.90;;;;;;5025447;28;20173;-69
2022/04/27 10:57:15;;;;;;;5.93;1.38;;;13.50;91.50;;;;;;5029098;28;20043;-69
2022/04/27 10:59:48;;;;;;;4.32;1.13;;;13.50;88.80;;;;;;5032057;28;20140;-69
2022/04/27 11:02:34;;;;;;;4.13;1.25;;;13.50;91.70;;;;;;5025940;28;20038;-69
2022/04/27 11:05:02;;;;;;;5.68;1.05;;;13.50;91.40;;;;;;5027487;28;20136;-69
2022/04/27 11:07:59;;;;;;;7.70;1.45;;;13.60;89.30;;;;;;5028693;28;20037;-69
2022/04/27 11:10:25;;;;;;;6.45;1.25;;;13.70;90.30;;;;;;5024963;28;20041;-69
2022/04/27 11:12:52;;;;;;;4.68;1.15;;;13.70;89.30;;;;;;5025352;28;20037;-69
2022/04/27 11:15:21;;;;;;;3.55;0.80;;;13.70;85.60;;;;;;5021737;28;20042;-69
2022/04/27 11:18:01;;;;;;;4.85;1.10;;;13.70;85.40;;;;;;5030169;28;20037;-70
2022/04/27 11:20:32;;;;;;;4.00;1.30;;;13.80;89.30;;;;;;5027403;28;20679;-69
2022/04/27 11:23:00;;;;;;;6.50;1.38;;;13.80;90.40;;;;;;5025386;28;20045;-69
2022/04/27 11:25:31;;;;;;;4.30;1.30;;;13.90;89.20;;;;;;5024296;28;20052;-69
2022/04/27 11:27:59;;;;;;;6.07;1.33;;;13.90;90.20;;;;;;5025216;28;20187;-69
2022/04/27 11:30:25;;;;;;;6.10;1.63;;;13.90;86.90;;;;;;5024638;28;20042;-69
2022/04/27 11:32:52;;;;;;;6.03;1.40;;;13.70;88.00;;;;;;5028137;28;20112;-68
2022/04/27 11:35:21;;;;;;;3.75;1.48;;;13.70;89.90;;;;;;5029392;28;20048;-69
2022/04/27 11:37:47;;;;;;;4.97;1.63;;;13.70;90.40;;;;;;5027886;28;20065;-69
2022/04/27 11:40:13;;;;;;;4.68;1.98;;;13.80;91.10;;;;;;5023391;28;20122;-69
2022/04/27 11:42:43;;;;;;;9.27;2.17;;;13.80;92.30;;;;;;5028584;28;20041;-69
2022/04/27 11:45:11;;;;;;;11.88;2.35;;;13.80;91.90;;;;;;5025099;28;20033;-69
2022/04/27 11:47:37;;;;;;;7.95;1.63;;;13.70;91.80;;;;;;5025817;28;20037;-69
2022/04/27 11:50:05;;;;;;;5.65;1.60;;;13.80;91.80;;;;;;5025835;28;20037;-69
2022/04/27 11:52:31;;;;;;;5.80;1.70;;;13.80;92.00;;;;;;5024478;28;20069;-69
2022/04/27 11:55:15;;;;;;;7.47;1.35;;;13.80;91.90;;;;;;5028930;28;20034;-69
2022/04/27 11:57:43;;;;;;;4.55;1.60;;;13.90;92.10;;;;;;5027282;28;20175;-69
2022/04/27 12:00:09;;;;;;;6.18;1.80;;;14.00;92.30;;;;;;5024508;28;20034;-69
2022/04/27 12:02:35;;;;;;;5.80;1.35;;;14.10;92.40;;;;;;5026779;28;20052;-69
2022/04/27 12:05:01;;;;;;;6.68;1.58;;;14.10;90.80;;;;;;5025756;28;20045;-69
2022/04/27 12:07:34;;;;;;;4.68;1.42;;;14.10;91.50;;;;;;5026604;28;20045;-69
2022/04/27 12:10:10;;;;;;;3.92;1.92;;;14.20;90.00;;;;;;5022043;28;20040;-69
2022/04/27 12:12:38;;;;;;;;;;;14.20;91.10;;;;;;5026385;28;20419;-69
2022/04/27 12:15:11;;;;;;;3.78;1.33;;;14.40;91.30;;;;;;5025316;28;20011;-69
2022/04/27 12:17:42;;;;;;;7.75;1.67;;;14.70;90.70;;;;;;5026447;28;20498;-69
2022/04/27 12:20:22;;;;;;;5.90;1.48;;;14.70;89.10;;;;;;5026896;28;20127;-69
2022/04/27 12:22:57;;;;;;;10.02;2.45;;;14.80;88.20;;;;;;5029346;28;20055;-69
2022/04/27 12:25:38;;;;;;;7.50;1.83;;;14.90;89.10;;;;;;5025008;28;20045;-69
2022/04/27 12:28:06;;;;;;;5.47;1.52;;;14.90;88.60;;;;;;5025375;28;21232;-69
2022/04/27 12:30:44;;;;;;;7.35;1.83;;;14.90;90.30;;;;;;5026653;28;20053;-69
2022/04/27 12:33:12;;;;;;;7.70;2.08;;;14.80;88.10;;;;;;5025829;28;20049;-68
2022/04/27 12:38:29;;;;;;;8.05;1.40;;;14.60;86.50;;;;;;5029701;28;20038;-68
2022/04/27 12:40:55;;;;;;;5.25;1.25;;;14.60;87.30;;;;;;5026270;28;20119;-68
2022/04/27 12:43:24;;;;;;;9.13;1.85;;;14.60;86.10;;;;;;5025959;28;20046;-68
2022/04/27 12:46:10;;;;;;;4.05;1.15;;;14.60;86.70;;;;;;5021999;28;20120;-68
2022/04/27 12:48:37;;;;;;;3.80;1.35;;;14.70;84.80;;;;;;5023730;28;20045;-68
2022/04/27 12:51:07;;;;;;;9.27;1.50;;;14.70;85.30;;;;;;5026185;28;20079;-68
2022/04/27 12:53:35;;;;;;;6.40;1.23;;;14.70;85.80;;;;;;5024262;28;20411;-68
2022/04/27 12:56:01;;;;;;;9.18;1.80;;;14.70;85.50;;;;;;5028784;28;20037;-68
2022/04/27 12:58:27;;;;;;;7.45;1.25;;;14.80;86.40;;;;;;5025914;28;20042;-68
2022/04/27 13:00:53;;;;;;;5.35;0.93;;;14.70;86.60;;;;;;5025427;28;20040;-68
2022/04/27 13:03:18;;;;;;;6.95;2.08;;;14.80;87.00;;;;;;5026755;28;20037;-68
2022/04/27 13:05:45;;;;;;;6.40;1.50;;;14.90;89.90;;;;;;5026343;28;20049;-68
2022/04/27 13:08:12;;;;;;;7.35;1.30;;;14.90;87.60;;;;;;5025719;28;20049;-68
2022/04/27 13:13:23;;;;;;;9.80;1.50;;;14.70;82.30;;;;;;5025162;28;20049;-68
2022/04/27 13:15:54;;;;;;;5.93;1.90;;;14.70;83.10;;;;;;5011080;28;21157;-68
2022/04/27 13:18:20;;;;;;;4.03;1.08;;;14.60;80.70;;;;;;5012277;28;20050;-68
2022/04/27 13:20:49;;;;;;;8.00;1.77;;;14.50;85.20;;;;;;5009785;28;20407;-68